createdAt,value
2023-03-20T00:13:15.159Z,39.6
2023-03-20T00:28:17.049Z,39.6
2023-03-20T00:43:18.975Z,30.8
2023-03-20T00:58:20.913Z,26.4
2023-03-20T01:13:22.892Z,19.8
2023-03-20T01:28:24.825Z,8.8
2023-03-20T01:43:26.751Z,4.4
2023-03-20T01:58:28.744Z,2.2
2023-03-20T02:13:30.716Z,0
2023-03-20T02:28:32.638Z,0
2023-03-20T02:43:34.572Z,0
2023-03-20T02:58:36.554Z,0
2023-03-20T03:13:38.492Z,0
2023-03-20T03:28:40.408Z,0
2023-03-20T03:43:42.344Z,0
2023-03-20T03:58:44.238Z,0
2023-03-20T04:13:46.209Z,0
2023-03-20T04:28:48.158Z,0
2023-03-20T04:43:50.204Z,0
2023-03-20T04:58:52.138Z,0
2023-03-20T05:13:54.045Z,0
2023-03-20T05:28:55.982Z,0
2023-03-20T05:43:57.946Z,0
2023-03-20T05:58:59.886Z,0
2023-03-20T06:14:01.818Z,0
2023-03-20T06:29:03.762Z,0
2023-03-20T06:44:05.737Z,0
2023-03-20T06:59:07.674Z,0
2023-03-20T07:14:09.622Z,0
2023-03-20T07:29:11.555Z,0
2023-03-20T07:44:13.468Z,0
2023-03-20T07:59:15.360Z,0
2023-03-20T08:14:17.311Z,0
2023-03-20T08:29:19.360Z,0
2023-03-20T08:44:21.351Z,0
2023-03-20T08:59:23.288Z,0
2023-03-20T09:14:25.201Z,0
2023-03-20T09:29:27.110Z,0
2023-03-20T09:44:28.996Z,0
2023-03-20T09:59:30.879Z,0
2023-03-20T10:14:32.810Z,0
2023-03-20T10:29:34.729Z,0
2023-03-20T10:44:36.640Z,0
2023-03-20T10:59:38.566Z,0
2023-03-20T11:14:40.509Z,0
2023-03-20T11:29:45.251Z,0
2023-03-20T11:44:47.812Z,0
2023-03-20T11:59:49.688Z,0
2023-03-20T12:14:51.606Z,0
2023-03-20T12:29:53.614Z,0
2023-03-20T12:44:55.562Z,0
2023-03-20T12:59:57.475Z,0
2023-03-20T13:14:59.355Z,0
2023-03-20T13:30:01.249Z,0
2023-03-20T13:45:03.146Z,0
2023-03-20T14:00:05.146Z,0
2023-03-20T14:15:07.106Z,2.2
2023-03-20T14:30:09.010Z,4.4
2023-03-20T14:45:10.903Z,8.8
2023-03-20T15:00:12.922Z,11
2023-03-20T15:15:14.875Z,13.2
2023-03-20T15:30:16.777Z,15.4
2023-03-20T15:45:18.749Z,17.6
2023-03-20T16:00:20.695Z,22
2023-03-20T16:15:22.626Z,26.4
2023-03-20T16:30:24.597Z,28.6
2023-03-20T16:45:26.598Z,33
2023-03-20T17:00:28.516Z,33
2023-03-20T17:15:30.701Z,37.4
2023-03-20T17:30:32.630Z,44
2023-03-20T17:45:34.555Z,46.2
2023-03-20T18:00:36.788Z,48.4
2023-03-20T18:15:38.961Z,48.4
2023-03-20T18:30:41.081Z,52.8
2023-03-20T18:45:43.095Z,61.6
2023-03-20T19:00:45.013Z,72.6
2023-03-20T19:15:46.989Z,70.4
2023-03-20T19:30:49.000Z,77
2023-03-20T19:45:50.912Z,92.4
2023-03-20T20:00:58.015Z,107.8
2023-03-20T20:16:00.798Z,105.6
2023-03-20T20:31:02.731Z,110
2023-03-20T20:46:04.698Z,118.8
2023-03-20T21:01:06.827Z,116.6
2023-03-20T21:16:08.884Z,136.4
2023-03-20T21:31:24.459Z,88
2023-03-20T21:47:04.095Z,121
2023-03-20T22:02:26.384Z,110
2023-03-20T22:17:59.736Z,112.2
2023-03-20T22:48:42.214Z,149.6
2023-03-20T23:03:44.230Z,114.4
2023-03-20T23:18:46.128Z,114.4
2023-03-20T23:33:48.077Z,134.2
2023-03-20T23:48:50.081Z,134.2
